• Join FlightAware (Why Join?)
  • Login
  • US Flag 
08:30AM EDT


 

Airport Tracker/Info


-or-


 

Live Flight TrackerFlight Track Log ✈ KAP4721 ✈ 18-Jun-2013 ✈ TQPF / AXA - TJSJ / SJU

Flight Track Log - Related Links

Times and Time Zones

All times are in EDT time to prevent confusion due to time zone crossing. See the KAP4721 flight status page for this flight to view local times or setup timezone preferences in your user account.

Time Position Orientation Groundspeed Altitude Reporting Facility
EDT Latitude Longitude Course Direction KTS MPH feet Rate Location/Type
08:06AM 18.2167 -63.1667 251° West 150 173 3,500  Level San Juan Center
08:07AM 18.2000 -63.2167 251° West 160 184 4,200 600 Climbing San Juan Center
08:08AM 18.2000 -63.2667 270° West 160 184 4,800 600 Climbing San Juan Center
08:09AM 18.1833 -63.3167 251° West 160 184 5,500 600 Climbing San Juan Center
08:10AM 18.1667 -63.3667 251° West 160 184 6,000 240 Climbing San Juan Center
08:11AM 18.1667 -63.4167 270° West 180 207 6,000  Level San Juan Center
08:12AM 18.1500 -63.4667 251° West 180 207 6,000  Level San Juan Center
08:13AM 18.1500 -63.5167 270° West 180 207 6,000  Level San Juan Center
08:14AM 18.1333 -63.5667 251° West 180 207 6,000  Level San Juan Center
08:15AM 18.1333 -63.6333 270° West 180 207 6,000  Level San Juan Center
08:16AM 18.1333 -63.6833 270° West 200 230 6,000  Level San Juan Center
08:17AM 18.1333 -63.7333 270° West 190 219 6,000  Level San Juan Center
08:18AM 18.1500 -63.8000 285° West 190 219 6,000  Level San Juan Center
08:19AM 18.1500 -63.8500 270° West 190 219 6,000  Level San Juan Center
08:20AM 18.1667 -63.9000 289° West 190 219 6,000  Level San Juan Center
08:21AM 18.1667 -63.9667 270° West 190 219 6,000  Level San Juan Center
08:22AM 18.1833 -64.0167 289° West 190 219 6,000  Level San Juan Center
08:23AM 18.1833 -64.0667 270° West 190 219 6,000  Level San Juan Center
08:24AM 18.2000 -64.1333 285° West 200 230 6,000  Level San Juan Center
08:25AM 18.2000 -64.1833 270° West 190 219 6,000  Level San Juan Center
08:26AM 18.2167 -64.2333 289° West 190 219 6,000  Level San Juan Center
08:27AM 18.2167 -64.3000 270° West 190 219 6,000  Level San Juan Center
08:28AM 18.2167 -64.3500 270° West 190 219 6,000  Level San Juan Center
08:29AM 18.2167 -64.4000 270° West 190 219 6,000  Level San Juan Center
08:30AM 18.2333 -64.4667 285° West 190 219 6,000  Level San Juan Center
08:31AM 18.2333 -64.5167 270° West 190 219 6,000  Level San Juan Center
08:32AM 18.2500 -64.5667 289° West 190 219 6,000  Level San Juan Center
08:33AM 18.2500 -64.6167 270° West 190 219 6,000  Level San Juan Center
08:34AM 18.2667 -64.6833 285° West 190 219 6,000  Level San Juan Center
08:35AM 18.2667 -64.7333 270° West 190 219 6,000  Level San Juan Center
08:36AM 18.2833 -64.8000 285° West 190 219 6,000  Level San Juan Center
08:37AM 18.2833 -64.8500 270° West 180 207 6,000  Level San Juan Center
08:38AM 18.3000 -64.9000 289° West 190 219 6,000  Level San Juan Center
08:39AM 18.3000 -64.9500 270° West 190 219 6,000  Level San Juan Center
08:40AM 18.3167 -65.0167 285° West 200 230 6,000  Level San Juan Center
08:41AM 18.3167 -65.0667 270° West 200 230 6,000  Level San Juan Center
08:42AM 18.3167 -65.1167 270° West 190 219 6,000  Level San Juan Center
08:43AM 18.3333 -65.1833 285° West 190 219 6,000 -60 Level San Juan Center
08:44AM 18.3333 -65.2333 270° West 180 207 5,900 -120 Descending San Juan Center
08:46AM 18.2946 -65.2893 282° West  Level FlightAware Approximate
08:53AM 18.3557 -65.5838 289° West  Level FlightAware Approximate
08:54AM 18.3667 -65.6249 270° West  Level FlightAware Approximate
08:55AM 18.3727 -65.6674 281° West  Level FlightAware Approximate
08:56AM 18.3802 -65.7098 281° West  Level FlightAware Approximate
08:57AM 18.3877 -65.7521 281° West  Level FlightAware Approximate
08:58AM 18.3952 -65.7945 281° West  Level FlightAware Approximate
08:59AM 18.4026 -65.8369 281° West  Level FlightAware Approximate
09:00AM 18.4101 -65.8792 281° West  Level FlightAware Approximate
09:01AM 18.4179 -65.9215 285° West  Level FlightAware Approximate
09:02AM 18.4283 -65.9632 285° West  Level FlightAware Approximate
09:03AM 18.4333 -66.0000 270° West  Level FlightAware Approximate
09:04AM 18.4393 -66.0020 270° West  Level Estimated